< < Back
Terminal Aerodrome Forecast


Current Version              Previous Versions:   1  2  3  4  5  6  7  8  9  

Terminal Aerodrome Forecast

644
FTUS42 KFFC 230800 AAA
TAFMCN
TAF AMD
KMCN 230801Z 2308/2406 28004KT 2SM BR FEW003
      TEMPO 2308/2310 3/4SM BR BKN003
     FM231200 33007KT P6SM FEW012
     FM240000 32005KT P6SM SKC=

Latest METAR

414
SAUS80 KWBC 231500
MTRMCN
METAR KMCN 231453Z 30006KT 10SM CLR 21/13 A2995 RMK AO2 SLP138 T02110133
51013


USA.gov is the U.S. government's official web portal to all federal, state and local government web resources and services.